Time;durP1;ratioP1;P1;durP2;ratioP2;P2;SDS_P1;SDS_P2;PMS_P1;PMS_P2;Temp;Humidity;BMP_temperature;BMP_pressure;BME280_temperature;BME280_humidity;BME280_pressure;Samples;Min_cycle;Max_cycle;Signal;HPM_P1;HPM_P2
2021/03/06 00:02:14;;;;;;;3.28;1.50;;;4.90;69.90;;;;;;5013985;28;20032;-85
2021/03/06 00:04:40;;;;;;;4.93;1.98;;;4.90;70.20;;;;;;4997387;28;20046;-85
2021/03/06 00:07:05;;;;;;;5.47;1.60;;;4.90;70.20;;;;;;4995174;28;20378;-85
2021/03/06 00:09:31;;;;;;;4.57;1.67;;;4.80;70.20;;;;;;5014159;28;20044;-85
2021/03/06 00:11:57;;;;;;;4.00;1.48;;;4.80;70.40;;;;;;4997458;28;20061;-85
2021/03/06 00:14:22;;;;;;;5.22;1.80;;;4.80;70.60;;;;;;4995181;28;20044;-85
2021/03/06 00:16:48;;;;;;;9.80;3.35;;;4.80;70.60;;;;;;5013801;28;20489;-85
2021/03/06 00:19:14;;;;;;;4.93;1.65;;;4.70;70.70;;;;;;4981307;28;20391;-84
2021/03/06 00:21:39;;;;;;;7.00;1.88;;;4.70;70.70;;;;;;4981863;28;20030;-85
2021/03/06 00:24:06;;;;;;;5.55;1.90;;;4.70;70.70;;;;;;4983776;28;20072;-86
2021/03/06 00:26:32;;;;;;;4.45;1.30;;;4.70;70.80;;;;;;5018025;28;20076;-85
2021/03/06 00:28:57;;;;;;;5.22;1.70;;;4.60;70.80;;;;;;5001312;28;20033;-85
2021/03/06 00:31:23;;;;;;;5.70;1.45;;;4.60;70.90;;;;;;5017467;28;20041;-85
2021/03/06 00:33:49;;;;;;;5.35;1.52;;;4.60;70.90;;;;;;5017842;28;20044;-84
2021/03/06 00:36:14;;;;;;;4.85;1.95;;;4.50;70.90;;;;;;5003792;28;20021;-84
2021/03/06 00:38:40;;;;;;;4.35;1.40;;;4.50;71.00;;;;;;5033870;28;20083;-85
2021/03/06 00:41:06;;;;;;;5.25;1.50;;;4.50;71.10;;;;;;5001040;28;20116;-85
2021/03/06 00:43:31;;;;;;;5.13;2.13;;;4.50;71.10;;;;;;5001484;28;20060;-85
2021/03/06 00:45:57;;;;;;;3.92;1.40;;;4.40;71.10;;;;;;5000930;28;20095;-85
2021/03/06 00:48:22;;;;;;;5.25;1.75;;;4.40;71.10;;;;;;5000971;28;20474;-85
2021/03/06 00:50:48;;;;;;;7.90;2.15;;;4.40;71.20;;;;;;5000973;28;20403;-85
2021/03/06 00:53:14;;;;;;;5.78;1.90;;;4.30;71.20;;;;;;5034872;28;20347;-85
2021/03/06 00:55:40;;;;;;;3.90;1.52;;;4.30;71.30;;;;;;5017426;28;20036;-85
2021/03/06 00:58:05;;;;;;;3.63;1.50;;;4.30;71.40;;;;;;5000856;28;20421;-85
2021/03/06 01:00:31;;;;;;;3.53;1.38;;;4.30;71.50;;;;;;5016864;28;20026;-85
2021/03/06 01:02:57;;;;;;;2.95;1.30;;;4.20;71.50;;;;;;5000565;28;20036;-84
2021/03/06 01:05:23;;;;;;;5.63;1.80;;;4.20;71.50;;;;;;5000270;28;20494;-85
2021/03/06 01:07:48;;;;;;;2.58;1.42;;;4.20;71.60;;;;;;5000863;28;20029;-85
2021/03/06 01:10:18;;;;;;;3.50;1.27;;;4.10;71.70;;;;;;5016504;28;20104;-84
2021/03/06 01:12:44;;;;;;;4.05;1.77;;;4.10;71.80;;;;;;5017200;28;20052;-85
2021/03/06 01:15:11;;;;;;;5.80;1.63;;;4.00;71.70;;;;;;4999889;28;20017;-87
2021/03/06 01:17:36;;;;;;;3.00;1.40;;;4.00;71.70;;;;;;5034908;28;20026;-85
2021/03/06 01:20:04;;;;;;;4.75;1.40;;;4.00;72.40;;;;;;5016859;28;20045;-85
2021/03/06 01:22:30;;;;;;;5.72;1.50;;;4.00;71.90;;;;;;5000415;28;20843;-85
2021/03/06 01:24:56;;;;;;;3.83;1.50;;;3.90;72.00;;;;;;5000415;28;20489;-85
2021/03/06 01:27:22;;;;;;;5.38;1.45;;;3.90;72.20;;;;;;5016601;28;20032;-83
2021/03/06 01:29:47;;;;;;;8.02;1.52;;;3.90;72.20;;;;;;4984161;28;20044;-85
2021/03/06 01:32:13;;;;;;;3.38;1.42;;;3.80;72.20;;;;;;4983262;28;20029;-86
2021/03/06 01:34:38;;;;;;;3.15;1.55;;;3.80;72.30;;;;;;5016960;28;20060;-83
2021/03/06 01:37:04;;;;;;;4.45;1.60;;;3.80;72.40;;;;;;5000101;28;20037;-84
2021/03/06 01:39:30;;;;;;;4.53;1.50;;;3.80;72.40;;;;;;4999975;28;20076;-84
2021/03/06 01:41:56;;;;;;;3.88;1.48;;;3.70;72.40;;;;;;5034117;28;20025;-83
2021/03/06 01:44:21;;;;;;;6.65;1.92;;;3.70;72.60;;;;;;5016195;28;20112;-85
2021/03/06 01:46:47;;;;;;;3.45;1.35;;;3.70;72.70;;;;;;5016253;28;20083;-84
2021/03/06 01:49:13;;;;;;;3.60;1.35;;;3.60;72.70;;;;;;4999530;28;20036;-85
2021/03/06 01:51:40;;;;;;;3.97;1.50;;;3.60;72.80;;;;;;5015971;28;20034;-85
2021/03/06 01:54:06;;;;;;;4.93;1.50;;;3.50;73.00;;;;;;4999714;28;20037;-85
2021/03/06 01:56:33;;;;;;;4.75;1.42;;;3.50;73.00;;;;;;4999718;28;20037;-85
2021/03/06 01:58:59;;;;;;;7.55;1.60;;;3.50;73.20;;;;;;5015880;28;20037;-84
2021/03/06 02:01:25;;;;;;;4.18;1.92;;;3.40;73.30;;;;;;5027948;28;20140;-85
2021/03/06 02:03:51;;;;;;;4.80;1.70;;;3.40;73.40;;;;;;5024143;28;20049;-84
2021/03/06 02:06:18;;;;;;;4.30;1.45;;;3.40;74.30;;;;;;4999145;28;20025;-85
2021/03/06 02:08:46;;;;;;;4.80;1.80;;;3.40;73.70;;;;;;5015757;28;20371;-85
2021/03/06 02:11:17;;;;;;;4.95;1.63;;;3.30;73.60;;;;;;5033478;28;20044;-85
2021/03/06 02:13:46;;;;;;;4.07;1.35;;;3.30;73.70;;;;;;5015996;28;20229;-85
2021/03/06 02:16:20;;;;;;;2.95;1.30;;;3.30;73.80;;;;;;5015947;28;20381;-85
2021/03/06 02:18:50;;;;;;;5.80;1.40;;;3.20;73.90;;;;;;5015625;28;20025;-85
2021/03/06 02:21:34;;;;;;;4.05;1.30;;;3.20;74.00;;;;;;5032225;28;20053;-84
2021/03/06 02:24:19;;;;;;;2.85;1.35;;;3.20;74.10;;;;;;5015457;28;20061;-84
2021/03/06 02:26:53;;;;;;;4.32;1.27;;;3.10;74.20;;;;;;5015477;28;20440;-84
2021/03/06 02:29:54;;;;;;;3.72;1.13;;;3.10;74.30;;;;;;5033118;28;20033;-85
2021/03/06 02:32:36;;;;;;;;;;;3.10;74.40;;;;;;5015839;28;20017;-85
2021/03/06 02:35:33;;;;;;;5.43;1.80;;;3.10;74.60;;;;;;5033265;28;19916;-85
2021/03/06 02:38:06;;;;;;;6.60;2.20;;;3.00;75.10;;;;;;5020777;28;20104;-85
2021/03/06 02:40:32;;;;;;;5.60;1.95;;;2.90;75.30;;;;;;5014781;28;20125;-84
2021/03/06 02:43:00;;;;;;;3.97;1.50;;;2.80;75.30;;;;;;5033028;28;20032;-85
2021/03/06 02:45:27;;;;;;;5.40;1.98;;;2.80;75.60;;;;;;5014225;28;20025;-84
2021/03/06 02:47:53;;;;;;;4.55;1.60;;;2.80;75.70;;;;;;5015338;28;20044;-85
2021/03/06 02:50:19;;;;;;;3.30;1.35;;;2.80;75.70;;;;;;5014847;28;20033;-84
2021/03/06 02:52:45;;;;;;;5.85;2.03;;;2.80;75.80;;;;;;5032804;28;20536;-85
2021/03/06 02:55:12;;;;;;;3.97;1.65;;;2.70;75.80;;;;;;4999271;28;20076;-85
2021/03/06 02:58:13;;;;;;;1.85;1.30;;;2.70;75.90;;;;;;5014708;28;20030;-86
2021/03/06 03:00:59;;;;;;;5.38;1.70;;;2.70;76.00;;;;;;5001717;28;20038;-84
2021/03/06 03:03:52;;;;;;;4.40;1.50;;;2.70;76.00;;;;;;5019452;28;20029;-85
2021/03/06 03:06:28;;;;;;;4.18;1.60;;;2.60;76.10;;;;;;5014885;28;20080;-85
2021/03/06 03:09:18;;;;;;;3.53;1.83;;;2.60;76.30;;;;;;5031520;28;20436;-85
2021/03/06 03:12:01;;;;;;;3.90;1.67;;;2.60;76.40;;;;;;5032346;28;20970;-85
2021/03/06 03:14:46;;;;;;;6.32;1.95;;;2.50;76.40;;;;;;5014870;28;20025;-84
2021/03/06 03:17:27;;;;;;;3.92;1.63;;;2.50;76.60;;;;;;5014751;28;20029;-85
2021/03/06 03:19:58;;;;;;;4.75;1.60;;;2.50;76.60;;;;;;5014390;28;20029;-85
2021/03/06 03:22:29;;;;;;;4.63;1.95;;;2.50;76.80;;;;;;5032544;28;20037;-85
2021/03/06 03:24:58;;;;;;;2.78;1.20;;;2.40;76.90;;;;;;5014539;28;20013;-85
2021/03/06 03:27:25;;;;;;;5.22;1.58;;;2.40;77.20;;;;;;5014634;28;20034;-84
2021/03/06 03:29:52;;;;;;;3.33;1.48;;;2.40;77.20;;;;;;5014833;28;20030;-85
2021/03/06 03:32:21;;;;;;;3.38;1.48;;;2.40;77.30;;;;;;4998388;28;20124;-85
2021/03/06 03:34:48;;;;;;;3.58;1.75;;;2.40;77.40;;;;;;5014108;28;20025;-85
2021/03/06 03:37:14;;;;;;;6.45;3.33;;;2.30;77.30;;;;;;5032058;28;20478;-85
2021/03/06 03:39:41;;;;;;;3.22;1.48;;;2.30;77.60;;;;;;5031570;28;20072;-85
2021/03/06 03:42:07;;;;;;;6.03;1.70;;;2.30;77.70;;;;;;5030931;28;20074;-85
2021/03/06 03:44:34;;;;;;;4.95;2.13;;;2.30;77.70;;;;;;5014409;28;20029;-85
2021/03/06 03:47:01;;;;;;;5.60;2.20;;;2.20;77.90;;;;;;4997885;28;20184;-84
2021/03/06 03:49:28;;;;;;;6.60;2.67;;;2.20;79.10;;;;;;5014266;28;20113;-86
2021/03/06 03:51:54;;;;;;;4.65;1.88;;;2.20;78.90;;;;;;5014560;28;20068;-85
2021/03/06 03:54:21;;;;;;;5.25;2.30;;;2.10;79.00;;;;;;4998184;28;20029;-86
2021/03/06 03:56:46;;;;;;;5.25;1.88;;;2.10;78.90;;;;;;5013654;28;20075;-85
2021/03/06 03:59:12;;;;;;;4.25;1.80;;;2.10;79.00;;;;;;4997713;28;20486;-85
2021/03/06 04:01:47;;;;;;;5.55;1.83;;;2.10;79.10;;;;;;4997774;28;20037;-87
2021/03/06 04:04:25;;;;;;;3.85;1.50;;;2.10;79.20;;;;;;5013575;28;20050;-85
2021/03/06 04:06:50;;;;;;;4.03;1.60;;;2.10;79.30;;;;;;5013928;28;20033;-85
2021/03/06 04:09:16;;;;;;;5.10;1.58;;;2.10;79.30;;;;;;4997996;28;20036;-85
2021/03/06 04:11:42;;;;;;;2.35;1.50;;;2.00;79.30;;;;;;4997528;28;20564;-86
2021/03/06 04:14:07;;;;;;;4.53;1.70;;;2.00;79.30;;;;;;4997698;28;20033;-85
2021/03/06 04:16:33;;;;;;;5.07;1.95;;;2.00;79.20;;;;;;4981262;28;20492;-86
2021/03/06 04:18:58;;;;;;;2.85;1.52;;;2.00;79.30;;;;;;4997373;28;20045;-85
2021/03/06 04:21:24;;;;;;;5.25;1.50;;;2.00;79.50;;;;;;5014354;28;20104;-86
2021/03/06 04:23:50;;;;;;;3.28;1.50;;;2.00;79.50;;;;;;4997598;28;20033;-86
2021/03/06 04:26:16;;;;;;;4.78;1.75;;;2.00;79.60;;;;;;4997623;28;20028;-86
2021/03/06 04:28:41;;;;;;;3.63;1.70;;;1.90;79.60;;;;;;5014257;28;20116;-86
2021/03/06 04:31:07;;;;;;;4.95;1.95;;;1.90;79.70;;;;;;5031684;28;20025;-86
2021/03/06 04:33:33;;;;;;;4.32;1.65;;;1.90;79.70;;;;;;5013845;28;20030;-85
2021/03/06 04:35:58;;;;;;;3.28;1.50;;;1.90;79.80;;;;;;4981601;28;20030;-86
2021/03/06 04:38:24;;;;;;;7.05;2.63;;;1.90;79.90;;;;;;5014105;28;20045;-85
2021/03/06 04:40:49;;;;;;;3.72;1.77;;;1.90;79.90;;;;;;4997822;28;20030;-86
2021/03/06 04:43:15;;;;;;;5.25;1.75;;;1.90;79.90;;;;;;5014127;28;20021;-85
2021/03/06 04:45:41;;;;;;;3.95;1.98;;;1.80;79.90;;;;;;5014145;28;20466;-86
2021/03/06 04:48:07;;;;;;;3.50;1.35;;;1.80;79.90;;;;;;4997938;28;20025;-85
2021/03/06 04:50:32;;;;;;;3.30;1.80;;;1.80;80.00;;;;;;4994101;28;20375;-85
2021/03/06 04:52:58;;;;;;;4.25;1.65;;;1.80;80.10;;;;;;5008604;28;20026;-85
2021/03/06 04:55:24;;;;;;;5.70;1.90;;;1.80;80.20;;;;;;5014152;28;20033;-86
2021/03/06 04:57:50;;;;;;;3.72;1.67;;;1.80;80.20;;;;;;5014096;28;20025;-85
2021/03/06 05:00:17;;;;;;;4.18;1.67;;;1.80;80.30;;;;;;4997961;28;20025;-85
2021/03/06 05:02:43;;;;;;;5.05;1.65;;;1.80;80.30;;;;;;5014346;28;20034;-85
2021/03/06 05:05:09;;;;;;;4.40;2.08;;;1.70;80.40;;;;;;5013869;28;20050;-85
2021/03/06 05:07:36;;;;;;;6.30;1.65;;;1.70;80.40;;;;;;5014303;28;20030;-86
2021/03/06 05:10:02;;;;;;;4.95;1.92;;;1.70;80.40;;;;;;5034533;28;20038;-86
2021/03/06 05:12:27;;;;;;;4.13;1.60;;;1.70;80.50;;;;;;5017644;28;20095;-86
2021/03/06 05:14:53;;;;;;;5.25;2.10;;;1.70;80.50;;;;;;5034890;28;20034;-86
2021/03/06 05:17:19;;;;;;;4.70;1.60;;;1.70;80.60;;;;;;4984870;28;20033;-86
2021/03/06 05:19:44;;;;;;;5.60;2.13;;;1.70;80.60;;;;;;5000700;28;20481;-86
2021/03/06 05:22:10;;;;;;;6.70;1.70;;;1.70;80.70;;;;;;5001185;28;20030;-86
2021/03/06 05:24:35;;;;;;;4.47;1.80;;;1.70;80.70;;;;;;5016775;28;20444;-86
2021/03/06 05:27:01;;;;;;;4.13;1.85;;;1.60;80.70;;;;;;5016629;28;20128;-86
2021/03/06 05:29:34;;;;;;;4.20;1.90;;;1.60;80.70;;;;;;5000120;28;20037;-86
2021/03/06 05:32:05;;;;;;;5.15;1.80;;;1.60;80.80;;;;;;5032786;28;20037;-86
2021/03/06 05:34:32;;;;;;;4.60;1.73;;;1.60;80.80;;;;;;5015914;28;20032;-86
2021/03/06 05:36:57;;;;;;;3.08;1.60;;;1.60;80.90;;;;;;5000408;28;20374;-86
2021/03/06 05:39:23;;;;;;;4.05;1.63;;;1.60;81.00;;;;;;5032635;28;20033;-85
2021/03/06 05:41:49;;;;;;;4.75;1.58;;;1.60;80.90;;;;;;4999953;28;20080;-86
2021/03/06 05:44:15;;;;;;;3.80;1.80;;;1.60;81.00;;;;;;5000210;28;20036;-86
2021/03/06 05:46:42;;;;;;;6.63;2.08;;;1.60;81.00;;;;;;5012678;28;20041;-86
2021/03/06 05:49:08;;;;;;;3.28;1.60;;;1.50;81.00;;;;;;5024633;28;20535;-85
2021/03/06 05:51:37;;;;;;;5.38;1.80;;;1.60;81.10;;;;;;5033662;28;20037;-87
2021/03/06 05:54:08;;;;;;;4.57;1.67;;;1.50;81.10;;;;;;5016056;28;20072;-86
2021/03/06 05:56:36;;;;;;;;;;;1.50;81.20;;;;;;5032768;28;20034;-86
2021/03/06 05:59:03;;;;;;;1.88;1.23;;;1.60;81.30;;;;;;5033764;28;19917;-85
2021/03/06 06:01:31;;;;;;;4.82;2.20;;;1.50;81.20;;;;;;5032326;28;20026;-86
2021/03/06 06:04:02;;;;;;;5.75;2.10;;;1.50;81.20;;;;;;4999631;28;20072;-86
2021/03/06 06:06:28;;;;;;;;;;;1.50;81.20;;;;;;5016325;28;20095;-86
2021/03/06 06:08:55;;;;;;;4.15;1.48;;;1.50;81.40;;;;;;5015662;28;19960;-86
2021/03/06 06:11:21;;;;;;;3.90;1.58;;;1.50;81.30;;;;;;4999670;28;20026;-86
2021/03/06 06:13:47;;;;;;;4.63;1.73;;;1.40;81.40;;;;;;5011949;28;20068;-86
2021/03/06 06:16:14;;;;;;;4.10;2.00;;;1.40;81.50;;;;;;5005564;28;20113;-85
2021/03/06 06:18:40;;;;;;;5.80;2.30;;;1.40;81.50;;;;;;5015474;28;20037;-86
2021/03/06 06:21:05;;;;;;;4.25;2.10;;;1.40;81.50;;;;;;5032090;28;20049;-85
2021/03/06 06:23:31;;;;;;;5.68;2.10;;;1.40;81.90;;;;;;4999219;28;20496;-86
2021/03/06 06:25:57;;;;;;;4.40;2.00;;;1.40;81.60;;;;;;5033008;28;20025;-85
2021/03/06 06:28:22;;;;;;;6.32;2.05;;;1.40;81.70;;;;;;5033238;28;20462;-86
2021/03/06 06:31:08;;;;;;;4.18;1.98;;;1.40;81.70;;;;;;5015407;28;20080;-86
2021/03/06 06:33:34;;;;;;;4.43;1.85;;;1.40;81.70;;;;;;5004038;28;20036;-86
2021/03/06 06:36:00;;;;;;;5.03;2.08;;;1.40;81.70;;;;;;4982732;28;20037;-86
2021/03/06 06:38:25;;;;;;;6.03;1.60;;;1.40;81.70;;;;;;4999072;28;20038;-86
2021/03/06 06:40:55;;;;;;;7.90;2.35;;;1.40;81.80;;;;;;4999268;28;20040;-86
2021/03/06 06:43:23;;;;;;;4.75;2.00;;;1.40;81.90;;;;;;5033045;28;20014;-86
2021/03/06 06:45:49;;;;;;;5.30;2.28;;;1.40;82.00;;;;;;4998877;28;20036;-86
2021/03/06 06:48:15;;;;;;;5.00;1.90;;;1.40;82.00;;;;;;5032982;28;20030;-85
2021/03/06 06:50:41;;;;;;;5.22;2.20;;;1.40;82.10;;;;;;5015283;28;20030;-86
2021/03/06 06:53:06;;;;;;;4.93;2.08;;;1.40;82.10;;;;;;5032914;28;20054;-86
2021/03/06 06:55:39;;;;;;;4.68;1.90;;;1.40;82.10;;;;;;5030882;28;20083;-86
2021/03/06 06:58:05;;;;;;;4.47;1.83;;;1.40;82.30;;;;;;5031034;28;20036;-86
2021/03/06 07:00:32;;;;;;;5.18;2.05;;;1.40;82.30;;;;;;5030963;28;20034;-86
2021/03/06 07:03:06;;;;;;;4.10;1.88;;;1.50;82.40;;;;;;5029474;28;20076;-86
2021/03/06 07:05:36;;;;;;;4.18;1.90;;;1.40;82.40;;;;;;5013597;28;20046;-86
2021/03/06 07:08:23;;;;;;;5.07;2.63;;;1.40;82.40;;;;;;4995298;28;20077;-86
2021/03/06 07:10:49;;;;;;;5.13;2.63;;;1.50;82.60;;;;;;5001891;28;20377;-86
2021/03/06 07:13:15;;;;;;;7.53;2.22;;;1.50;82.60;;;;;;5014908;28;20033;-86
2021/03/06 07:15:43;;;;;;;6.32;2.20;;;1.50;82.70;;;;;;4998198;28;20095;-86
2021/03/06 07:18:16;;;;;;;6.03;2.17;;;1.50;82.90;;;;;;5032530;28;20087;-86
2021/03/06 07:20:43;;;;;;;6.55;2.00;;;1.50;82.90;;;;;;5014298;28;20083;-86
2021/03/06 07:23:22;;;;;;;5.85;2.20;;;1.60;83.10;;;;;;4998298;28;20025;-86
2021/03/06 07:25:55;;;;;;;8.05;2.60;;;1.60;83.10;;;;;;5032165;28;20026;-86
2021/03/06 07:28:22;;;;;;;5.72;2.35;;;1.60;83.10;;;;;;5031452;28;20094;-86
2021/03/06 07:30:48;;;;;;;6.38;2.30;;;1.60;83.10;;;;;;4998211;28;20068;-86
2021/03/06 07:33:17;;;;;;;5.38;2.10;;;1.60;83.20;;;;;;5013983;28;20053;-86
2021/03/06 07:35:45;;;;;;;5.70;2.63;;;1.70;83.30;;;;;;5014308;28;20026;-86
2021/03/06 07:38:18;;;;;;;5.03;2.33;;;1.70;83.40;;;;;;5014029;28;20366;-86
2021/03/06 07:40:51;;;;;;;5.75;2.60;;;1.70;83.60;;;;;;5014180;28;20541;-86
2021/03/06 07:43:21;;;;;;;8.30;3.15;;;1.70;83.80;;;;;;5014412;28;20029;-86
2021/03/06 07:45:49;;;;;;;5.87;2.60;;;1.80;84.00;;;;;;5014033;28;20018;-87
2021/03/06 07:48:16;;;;;;;5.97;2.60;;;1.80;84.10;;;;;;5030481;28;20026;-86
2021/03/06 07:50:44;;;;;;;5.53;2.33;;;1.80;84.20;;;;;;5032168;28;20091;-86
2021/03/06 07:53:13;;;;;;;5.53;2.40;;;1.90;84.40;;;;;;5032184;28;20034;-86
2021/03/06 07:55:39;;;;;;;7.95;3.20;;;1.90;84.60;;;;;;5014717;28;20030;-86
2021/03/06 07:58:09;;;;;;;6.53;2.88;;;2.00;84.90;;;;;;5013237;28;20061;-85
2021/03/06 08:00:41;;;;;;;6.10;2.90;;;2.00;85.10;;;;;;5031478;28;20038;-85
2021/03/06 08:03:33;;;;;;;5.95;2.67;;;2.10;85.40;;;;;;5029933;28;20489;-85
2021/03/06 08:06:19;;;;;;;4.55;2.30;;;2.10;85.60;;;;;;5013701;28;20045;-85
2021/03/06 08:08:45;;;;;;;6.43;2.22;;;2.20;85.70;;;;;;5031204;28;20041;-85
2021/03/06 08:11:16;;;;;;;3.83;1.90;;;2.30;85.90;;;;;;5031829;28;20032;-85
2021/03/06 08:13:45;;;;;;;4.68;1.60;;;2.30;86.10;;;;;;5031525;28;20032;-85
2021/03/06 08:16:22;;;;;;;6.28;2.65;;;2.40;86.40;;;;;;5039957;28;20075;-85
2021/03/06 08:19:09;;;;;;;5.25;1.77;;;2.40;86.60;;;;;;5033581;28;20125;-85
2021/03/06 08:21:47;;;;;;;5.60;1.70;;;2.50;86.60;;;;;;5028082;28;20060;-85
2021/03/06 08:24:16;;;;;;;5.32;1.88;;;2.60;86.80;;;;;;5012785;28;20021;-85
2021/03/06 08:26:54;;;;;;;7.40;2.25;;;2.60;87.30;;;;;;5017591;28;20032;-86
2021/03/06 08:29:23;;;;;;;4.78;1.58;;;2.70;87.60;;;;;;5026412;28;20506;-86
2021/03/06 08:31:56;;;;;;;7.28;1.77;;;2.70;87.70;;;;;;5029469;28;20120;-85
2021/03/06 08:34:42;;;;;;;9.48;2.00;;;2.80;87.90;;;;;;5016130;28;20030;-85
2021/03/06 08:37:17;;;;;;;6.10;1.48;;;2.90;88.00;;;;;;5030601;28;20506;-85
2021/03/06 08:39:54;;;;;;;4.43;1.40;;;2.90;88.20;;;;;;5013063;28;20079;-85
2021/03/06 08:42:44;;;;;;;5.82;1.80;;;3.00;88.40;;;;;;5013153;28;20022;-85
2021/03/06 08:45:27;;;;;;;6.05;1.70;;;3.10;88.40;;;;;;5016017;28;20448;-85
2021/03/06 08:48:04;;;;;;;4.95;1.80;;;3.20;88.40;;;;;;5016588;28;20461;-85
2021/03/06 08:50:31;;;;;;;2.55;1.00;;;3.20;88.30;;;;;;5017137;28;20470;-85
2021/03/06 08:53:02;;;;;;;3.80;1.23;;;3.30;88.30;;;;;;5034132;28;20052;-85
2021/03/06 08:55:30;;;;;;;5.20;1.20;;;3.30;88.30;;;;;;5025360;28;20025;-84
2021/03/06 08:58:03;;;;;;;6.25;2.05;;;3.40;88.40;;;;;;4999984;28;20116;-85
2021/03/06 09:00:42;;;;;;;3.30;1.38;;;3.50;88.50;;;;;;5034176;28;20025;-84
2021/03/06 09:03:08;;;;;;;5.28;1.30;;;3.50;88.50;;;;;;5034221;28;20021;-83
2021/03/06 09:05:34;;;;;;;6.95;1.60;;;3.60;88.60;;;;;;5012646;28;20057;-85
2021/03/06 09:08:00;;;;;;;4.30;1.30;;;3.70;88.60;;;;;;5013061;28;20029;-83
2021/03/06 09:10:28;;;;;;;4.65;1.63;;;3.70;88.50;;;;;;5013317;28;20474;-84
2021/03/06 09:13:02;;;;;;;4.43;1.48;;;3.80;88.60;;;;;;5033571;28;20513;-85
2021/03/06 09:15:53;;;;;;;8.02;2.58;;;3.90;88.70;;;;;;5016828;28;20053;-84
2021/03/06 09:18:20;;;;;;;6.33;1.50;;;3.90;88.80;;;;;;5015276;28;20030;-84
2021/03/06 09:20:59;;;;;;;6.22;1.60;;;4.00;88.70;;;;;;5027983;28;20030;-84
2021/03/06 09:23:27;;;;;;;4.47;1.35;;;4.10;88.70;;;;;;5028563;28;20044;-84
2021/03/06 09:25:53;;;;;;;6.18;1.38;;;4.20;88.80;;;;;;5023485;28;20029;-85
2021/03/06 09:28:24;;;;;;;5.15;2.45;;;4.20;88.70;;;;;;5011201;28;20569;-84
2021/03/06 09:30:50;;;;;;;4.35;1.70;;;4.30;88.70;;;;;;5007212;28;20120;-84
2021/03/06 09:33:23;;;;;;;7.45;2.00;;;4.40;88.80;;;;;;5012053;28;20033;-85
2021/03/06 09:35:57;;;;;;;8.95;1.95;;;4.40;88.70;;;;;;5013812;28;20029;-84
2021/03/06 09:38:23;;;;;;;8.30;1.70;;;4.50;88.60;;;;;;5020204;28;20490;-84
2021/03/06 09:40:49;;;;;;;7.85;2.03;;;4.60;88.60;;;;;;5023973;28;20088;-85
2021/03/06 09:43:22;;;;;;;5.20;1.77;;;4.70;88.70;;;;;;5015063;28;20030;-83
2021/03/06 09:45:48;;;;;;;8.73;1.75;;;4.80;88.50;;;;;;4988827;28;20034;-84
2021/03/06 09:48:16;;;;;;;5.45;1.83;;;4.90;88.30;;;;;;4996161;28;20084;-85
2021/03/06 09:50:45;;;;;;;5.35;1.63;;;4.90;88.30;;;;;;4997165;28;20117;-84
2021/03/06 09:53:14;;;;;;;5.18;1.42;;;5.10;88.40;;;;;;5013362;28;20022;-84
2021/03/06 09:55:40;;;;;;;4.78;1.92;;;5.20;88.50;;;;;;5028682;28;20083;-84
2021/03/06 09:58:23;;;;;;;5.70;1.63;;;5.40;87.80;;;;;;5026851;28;20143;-84
2021/03/06 10:00:50;;;;;;;4.85;1.05;;;5.40;87.40;;;;;;5022958;28;20038;-84
2021/03/06 10:03:33;;;;;;;5.88;1.63;;;5.60;87.30;;;;;;5009377;28;20029;-84
2021/03/06 10:06:01;;;;;;;8.52;1.45;;;5.70;86.00;;;;;;4994394;28;20089;-84
2021/03/06 10:08:30;;;;;;;6.13;1.80;;;5.80;85.10;;;;;;5027849;28;20022;-84
2021/03/06 10:10:57;;;;;;;5.55;1.48;;;5.90;84.20;;;;;;5023730;28;20454;-84
2021/03/06 10:13:24;;;;;;;5.82;1.67;;;6.10;83.50;;;;;;5025493;28;20064;-84
2021/03/06 10:15:52;;;;;;;6.18;1.70;;;6.20;84.00;;;;;;5023357;28;20533;-85
2021/03/06 10:18:17;;;;;;;6.85;2.00;;;6.10;84.10;;;;;;4995414;28;20030;-85
2021/03/06 10:20:43;;;;;;;5.85;2.03;;;6.20;84.30;;;;;;5029392;28;20033;-85
2021/03/06 10:23:11;;;;;;;5.35;1.60;;;6.20;84.30;;;;;;4995628;28;20030;-84
2021/03/06 10:25:37;;;;;;;5.80;1.80;;;6.30;84.20;;;;;;5028968;28;20385;-85
2021/03/06 10:28:12;;;;;;;8.73;1.77;;;6.40;83.50;;;;;;5007577;28;20022;-85
2021/03/06 10:30:40;;;;;;;3.50;1.20;;;6.40;83.20;;;;;;5019474;28;20045;-84
2021/03/06 10:33:19;;;;;;;4.55;1.23;;;6.40;83.10;;;;;;5016999;28;20022;-85
2021/03/06 10:35:48;;;;;;;2.30;0.80;;;6.50;82.80;;;;;;5021435;28;20079;-85
2021/03/06 10:38:30;;;;;;;1.95;0.90;;;6.50;82.60;;;;;;5010757;28;20033;-85
2021/03/06 10:40:58;;;;;;;5.70;1.45;;;6.60;82.40;;;;;;5017639;28;20030;-85
2021/03/06 10:43:39;;;;;;;4.00;0.80;;;6.60;81.80;;;;;;5023946;28;20474;-85
2021/03/06 10:46:24;;;;;;;2.72;0.90;;;6.70;81.20;;;;;;5004803;28;20026;-84
2021/03/06 10:48:54;;;;;;;2.00;0.70;;;6.70;80.40;;;;;;5019695;28;20045;-83
2021/03/06 10:51:22;;;;;;;1.08;0.88;;;6.80;80.10;;;;;;5018258;28;20030;-84
2021/03/06 10:54:05;;;;;;;4.78;1.10;;;6.80;80.10;;;;;;4997390;28;20052;-84
2021/03/06 10:56:31;;;;;;;4.88;0.90;;;6.90;78.90;;;;;;4998649;28;20042;-84
2021/03/06 10:58:57;;;;;;;1.92;0.80;;;7.00;77.80;;;;;;5009866;28;20087;-85
2021/03/06 11:01:23;;;;;;;4.65;0.93;;;7.00;77.70;;;;;;5011245;28;20433;-84
2021/03/06 11:03:51;;;;;;;2.00;0.73;;;7.10;77.00;;;;;;5011160;28;20045;-89
2021/03/06 11:06:18;;;;;;;1.98;0.43;;;7.20;77.40;;;;;;5025519;28;20157;-88
2021/03/06 11:08:58;;;;;;;4.72;0.68;;;7.30;77.50;;;;;;5009458;28;20101;-88
2021/03/06 11:11:24;;;;;;;4.55;1.52;;;7.40;75.90;;;;;;5030648;28;20177;-89
2021/03/06 11:13:50;;;;;;;3.28;0.82;;;7.50;74.10;;;;;;5023209;28;20053;-88
2021/03/06 11:16:16;;;;;;;1.05;0.47;;;7.50;71.80;;;;;;5023708;28;20482;-88
2021/03/06 11:18:43;;;;;;;5.13;0.73;;;7.60;72.30;;;;;;4999560;28;20123;-87
2021/03/06 11:21:13;;;;;;;6.43;1.45;;;7.60;70.70;;;;;;5010898;28;20047;-82
2021/03/06 11:23:39;;;;;;;3.63;1.05;;;7.70;68.20;;;;;;5027777;28;20029;-83
2021/03/06 11:26:06;;;;;;;2.70;0.70;;;7.80;69.20;;;;;;5028666;28;20666;-85
2021/03/06 11:28:32;;;;;;;2.90;0.57;;;7.90;68.70;;;;;;5030304;28;20059;-85
2021/03/06 11:30:59;;;;;;;2.63;0.60;;;7.90;69.30;;;;;;5040169;28;20053;-85
2021/03/06 11:33:25;;;;;;;1.52;0.85;;;8.00;68.50;;;;;;4980717;28;20046;-84
2021/03/06 11:35:51;;;;;;;1.83;0.70;;;8.10;69.10;;;;;;5030786;28;20028;-83
2021/03/06 11:38:19;;;;;;;1.83;0.73;;;8.20;68.70;;;;;;5024377;28;20013;-86
2021/03/06 11:40:48;;;;;;;2.78;0.65;;;8.30;66.70;;;;;;5026728;28;20032;-83
2021/03/06 11:43:14;;;;;;;2.53;0.50;;;8.30;67.50;;;;;;5025132;28;20029;-87
2021/03/06 11:45:41;;;;;;;2.15;0.50;;;8.40;68.50;;;;;;5028102;28;20032;-84
2021/03/06 11:48:07;;;;;;;3.10;0.60;;;8.50;69.10;;;;;;5039583;28;20041;-84
2021/03/06 11:50:37;;;;;;;3.30;0.80;;;8.60;68.90;;;;;;5042352;28;20030;-84
2021/03/06 11:53:03;;;;;;;2.55;0.40;;;8.70;66.90;;;;;;5026013;28;20021;-85
2021/03/06 11:55:29;;;;;;;3.15;0.60;;;8.80;65.90;;;;;;5028031;28;20107;-85
2021/03/06 11:57:54;;;;;;;1.90;0.70;;;8.80;66.50;;;;;;5024757;28;20067;-85
2021/03/06 12:00:23;;;;;;;2.45;0.90;;;8.90;66.70;;;;;;5014355;28;20382;-84
2021/03/06 12:02:49;;;;;;;3.15;0.80;;;9.00;66.00;;;;;;5014262;28;20493;-84
2021/03/06 12:05:16;;;;;;;2.75;0.90;;;9.00;66.10;;;;;;5036591;28;20479;-85
2021/03/06 12:07:43;;;;;;;2.95;0.90;;;9.10;64.60;;;;;;5028833;28;20072;-85
2021/03/06 12:10:15;;;;;;;2.95;0.82;;;9.20;62.80;;;;;;5010637;28;20405;-84
2021/03/06 12:12:43;;;;;;;2.72;1.00;;;9.20;62.60;;;;;;5012086;28;20033;-85
2021/03/06 12:15:10;;;;;;;2.08;0.85;;;9.30;63.20;;;;;;5012407;28;20017;-85
2021/03/06 12:17:36;;;;;;;3.42;0.95;;;9.30;63.20;;;;;;5031306;28;20504;-87
2021/03/06 12:20:03;;;;;;;2.28;0.77;;;9.30;63.40;;;;;;5017268;28;20033;-85
2021/03/06 12:22:29;;;;;;;2.03;0.77;;;9.40;64.10;;;;;;5017030;28;20120;-85
2021/03/06 12:24:55;;;;;;;2.15;0.85;;;9.40;63.60;;;;;;5035081;28;20141;-85
2021/03/06 12:27:20;;;;;;;2.88;0.85;;;9.50;62.60;;;;;;5000775;28;20037;-85
2021/03/06 12:29:46;;;;;;;1.88;0.60;;;9.50;61.80;;;;;;5033709;28;20041;-85
2021/03/06 12:32:12;;;;;;;4.20;1.13;;;9.60;60.80;;;;;;5000971;28;20033;-85
2021/03/06 12:34:37;;;;;;;3.10;1.00;;;9.60;60.80;;;;;;5034820;28;20079;-85
2021/03/06 12:37:04;;;;;;;1.75;0.70;;;9.60;60.50;;;;;;5017225;28;20022;-84
2021/03/06 12:39:29;;;;;;;1.73;0.68;;;9.80;60.40;;;;;;5017069;28;20034;-85
2021/03/06 12:41:55;;;;;;;3.65;0.80;;;9.80;59.60;;;;;;5001066;28;20037;-84
2021/03/06 12:44:21;;;;;;;4.07;1.00;;;9.90;59.10;;;;;;5016818;28;20417;-84
2021/03/06 12:46:48;;;;;;;2.58;0.80;;;9.90;59.80;;;;;;5000506;28;20021;-85
2021/03/06 12:49:18;;;;;;;2.35;1.05;;;10.00;60.40;;;;;;5016472;28;20061;-84
2021/03/06 12:51:44;;;;;;;1.98;0.90;;;10.00;60.40;;;;;;5016756;28;20032;-84
2021/03/06 12:54:10;;;;;;;1.33;0.60;;;10.10;60.90;;;;;;5017216;28;20038;-85
2021/03/06 12:56:36;;;;;;;1.00;0.80;;;10.10;61.20;;;;;;5000945;28;20064;-84
2021/03/06 12:59:01;;;;;;;4.28;1.23;;;10.20;61.20;;;;;;5034159;28;20029;-85
2021/03/06 13:01:27;;;;;;;3.58;1.00;;;10.30;61.60;;;;;;5017842;28;20084;-82
2021/03/06 13:03:53;;;;;;;2.20;0.88;;;10.40;59.40;;;;;;5001129;28;20116;-84
2021/03/06 13:06:19;;;;;;;3.90;1.13;;;10.50;59.40;;;;;;5017982;28;20124;-85
2021/03/06 13:08:44;;;;;;;1.05;0.73;;;10.60;60.10;;;;;;4985316;28;20042;-84